createdAt,value
2022-11-27T00:00:59.102Z,69.07
2022-11-27T00:03:29.079Z,68.80
2022-11-27T00:05:58.425Z,70.23
2022-11-27T00:08:26.613Z,70.30
2022-11-27T00:10:54.740Z,70.90
2022-11-27T00:13:22.641Z,73.27
2022-11-27T00:15:51.758Z,68.07
2022-11-27T00:18:19.728Z,67.73
2022-11-27T00:20:48.969Z,64.20
2022-11-27T00:23:16.888Z,63.00
2022-11-27T00:25:51.413Z,56.77
2022-11-27T00:28:19.436Z,66.17
2022-11-27T00:30:47.490Z,69.07
2022-11-27T00:33:15.432Z,70.83
2022-11-27T00:35:43.637Z,67.23
2022-11-27T00:38:12.876Z,76.00
2022-11-27T00:40:40.789Z,58.57
2022-11-27T00:43:08.685Z,70.27
2022-11-27T00:45:36.572Z,67.23
2022-11-27T00:48:04.707Z,66.13
2022-11-27T00:50:32.785Z,65.33
2022-11-27T00:53:00.815Z,61.80
2022-11-27T00:55:30.047Z,62.60
2022-11-27T00:57:57.939Z,72.00
2022-11-27T01:00:26.011Z,64.30
2022-11-27T01:02:53.934Z,71.53
2022-11-27T01:05:21.855Z,71.60
2022-11-27T01:07:49.860Z,73.67
2022-11-27T01:10:17.988Z,74.63
2022-11-27T01:12:49.962Z,76.20
2022-11-27T01:15:18.003Z,81.07
2022-11-27T01:17:45.920Z,69.67
2022-11-27T01:20:14.260Z,81.30
2022-11-27T01:22:42.155Z,77.33
2022-11-27T01:25:10.615Z,72.97
2022-11-27T01:27:38.506Z,74.00
2022-11-27T01:30:09.388Z,73.87
2022-11-27T01:32:37.275Z,81.57
2022-11-27T01:35:05.532Z,77.70
2022-11-27T01:37:33.431Z,77.13
2022-11-27T01:40:01.326Z,73.87
2022-11-27T01:42:29.245Z,86.67
2022-11-27T01:44:57.517Z,85.23
2022-11-27T01:47:35.583Z,78.27
2022-11-27T01:50:17.208Z,81.43
2022-11-27T01:52:50.242Z,90.30
2022-11-27T01:55:24.259Z,83.13
2022-11-27T01:57:55.991Z,81.80
2022-11-27T02:00:25.635Z,78.53
2022-11-27T02:02:54.952Z,89.10
2022-11-27T02:05:24.923Z,77.33
2022-11-27T02:07:54.245Z,84.33
2022-11-27T02:10:23.198Z,78.50
2022-11-27T02:12:58.947Z,97.37
2022-11-27T02:15:35.744Z,90.27
2022-11-27T02:18:13.865Z,122.97
2022-11-27T02:20:49.803Z,97.97
2022-11-27T02:23:42.498Z,97.70
2022-11-27T02:26:41.910Z,108.80
2022-11-27T02:29:12.254Z,129.80
2022-11-27T02:31:46.296Z,137.27
2022-11-27T02:34:23.487Z,156.17
2022-11-27T02:36:58.127Z,150.93
2022-11-27T02:39:33.399Z,120.73
2022-11-27T02:42:08.419Z,132.83
2022-11-27T02:44:42.537Z,114.67
2022-11-27T02:47:11.334Z,137.00
2022-11-27T02:49:40.618Z,126.73
2022-11-27T02:52:10.177Z,113.97
2022-11-27T02:54:40.624Z,121.40
2022-11-27T02:57:11.013Z,111.17
2022-11-27T02:59:42.211Z,100.77
2022-11-27T03:02:16.393Z,94.30
2022-11-27T03:04:50.542Z,87.33
2022-11-27T03:07:26.107Z,79.00
2022-11-27T03:09:58.237Z,68.80
2022-11-27T03:12:26.232Z,80.87
2022-11-27T03:14:55.542Z,89.67
2022-11-27T03:17:37.117Z,94.53
2022-11-27T03:20:14.502Z,85.63
2022-11-27T03:22:42.532Z,86.97
2022-11-27T03:25:10.588Z,92.13
2022-11-27T03:27:42.970Z,86.93
2022-11-27T03:30:13.803Z,99.77
2022-11-27T03:32:42.158Z,79.00
2022-11-27T03:35:12.399Z,69.77
2022-11-27T03:37:40.550Z,70.97
2022-11-27T03:40:10.104Z,69.80
2022-11-27T03:42:50.353Z,68.80
2022-11-27T03:45:28.524Z,72.03
2022-11-27T03:48:07.437Z,71.03
2022-11-27T03:50:47.490Z,65.63
2022-11-27T03:53:25.709Z,64.77
2022-11-27T03:55:58.721Z,66.57
2022-11-27T03:58:34.741Z,64.93
2022-11-27T04:01:08.429Z,74.43
2022-11-27T04:03:36.857Z,66.80
2022-11-27T04:06:05.201Z,68.70
2022-11-27T04:08:33.321Z,62.20
2022-11-27T04:11:01.265Z,58.97
2022-11-27T04:13:29.139Z,74.77
2022-11-27T04:15:57.114Z,69.80
2022-11-27T04:18:26.433Z,58.57
2022-11-27T04:20:54.421Z,75.30
2022-11-27T04:23:22.432Z,130.53
2022-11-27T04:25:50.766Z,98.63
2022-11-27T04:28:18.874Z,72.27
2022-11-27T04:30:51.425Z,66.00
2022-11-27T04:33:19.553Z,87.17
2022-11-27T04:35:48.857Z,74.93
2022-11-27T04:38:16.933Z,72.97
2022-11-27T04:40:44.987Z,78.13
2022-11-27T04:43:13.752Z,83.47
2022-11-27T04:45:42.072Z,78.93
2022-11-27T04:48:09.939Z,74.43
2022-11-27T04:50:37.920Z,80.07
2022-11-27T04:53:07.173Z,88.23
2022-11-27T04:55:36.076Z,94.33
2022-11-27T04:58:04.065Z,101.03
2022-11-27T05:00:32.064Z,162.07
2022-11-27T05:03:00.157Z,125.73
2022-11-27T05:05:28.208Z,113.80
2022-11-27T05:07:56.197Z,105.33
2022-11-27T05:10:25.811Z,105.77
2022-11-27T05:12:53.740Z,117.00
2022-11-27T05:15:21.683Z,126.73
2022-11-27T05:17:49.600Z,107.57
2022-11-27T05:20:17.663Z,124.50
2022-11-27T05:22:46.167Z,203.33
2022-11-27T05:25:14.084Z,127.07
2022-11-27T05:27:43.342Z,261.10
2022-11-27T05:30:11.731Z,229.80
2022-11-27T05:32:39.701Z,213.87
2022-11-27T05:35:08.258Z,244.40
2022-11-27T05:37:36.148Z,182.40
2022-11-27T05:40:04.327Z,231.33
2022-11-27T05:42:32.211Z,185.20
2022-11-27T05:45:01.515Z,213.23
2022-11-27T05:47:29.403Z,180.00
2022-11-27T05:49:57.321Z,248.10
2022-11-27T05:52:25.231Z,262.30
2022-11-27T05:54:54.960Z,228.70
2022-11-27T05:57:23.122Z,298.73
2022-11-27T05:59:51.236Z,201.27
2022-11-27T06:02:24.973Z,402.60
2022-11-27T06:04:55.811Z,203.47
2022-11-27T06:07:23.840Z,270.70
2022-11-27T06:09:51.871Z,438.07
2022-11-27T06:12:19.794Z,181.87
2022-11-27T06:14:47.699Z,306.97
2022-11-27T06:17:16.562Z,198.37
2022-11-27T06:19:45.843Z,373.77
2022-11-27T06:22:13.739Z,199.40
2022-11-27T06:24:41.834Z,251.17
2022-11-27T06:27:09.962Z,231.87
2022-11-27T06:29:38.248Z,213.13
2022-11-27T06:32:06.797Z,224.70
2022-11-27T06:34:34.849Z,165.87
2022-11-27T06:37:05.426Z,218.93
2022-11-27T06:39:35.112Z,177.60
2022-11-27T06:42:03.042Z,189.00
2022-11-27T06:44:30.934Z,177.00
2022-11-27T06:46:58.830Z,204.37
2022-11-27T06:49:26.747Z,123.43
2022-11-27T06:51:54.670Z,113.50
2022-11-27T06:54:24.082Z,116.53
2022-11-27T06:56:52.152Z,106.30
2022-11-27T06:59:20.388Z,101.27
2022-11-27T07:01:48.588Z,81.07
2022-11-27T07:04:17.084Z,88.13
2022-11-27T07:06:45.261Z,70.67
2022-11-27T07:09:13.257Z,74.93
2022-11-27T07:11:42.545Z,91.53
2022-11-27T07:14:11.678Z,87.63
2022-11-27T07:16:39.606Z,63.00
2022-11-27T07:19:09.145Z,73.03
2022-11-27T07:21:38.076Z,94.23
2022-11-27T07:24:06.552Z,70.87
2022-11-27T07:26:34.449Z,70.70
2022-11-27T07:29:03.873Z,72.57
2022-11-27T07:31:32.096Z,65.13
2022-11-27T07:34:00.472Z,75.63
2022-11-27T07:36:31.195Z,73.30
2022-11-27T07:38:59.176Z,79.63
2022-11-27T07:41:32.430Z,65.73
2022-11-27T07:44:02.866Z,67.73
2022-11-27T07:46:31.240Z,87.87
2022-11-27T07:49:00.484Z,66.70
2022-11-27T07:51:29.222Z,70.07
2022-11-27T07:53:57.157Z,74.50
2022-11-27T07:56:25.096Z,69.07
2022-11-27T07:58:52.968Z,74.80
2022-11-27T08:01:22.521Z,71.53
2022-11-27T08:03:50.759Z,84.77
2022-11-27T08:06:21.226Z,70.67
2022-11-27T08:08:50.257Z,89.77
2022-11-27T08:11:20.772Z,77.90
2022-11-27T08:13:49.027Z,84.07
2022-11-27T08:16:17.492Z,84.30
2022-11-27T08:18:46.766Z,85.23
2022-11-27T08:21:14.691Z,74.63
2022-11-27T08:23:42.658Z,71.60
2022-11-27T08:26:11.848Z,62.70
2022-11-27T08:28:40.653Z,66.50
2022-11-27T08:31:10.209Z,86.73
2022-11-27T08:33:38.592Z,70.73
2022-11-27T08:36:12.554Z,67.27
2022-11-27T08:38:42.972Z,62.13
2022-11-27T08:41:11.284Z,72.30
2022-11-27T08:43:39.167Z,75.70
2022-11-27T08:46:08.325Z,74.57
2022-11-27T08:48:36.376Z,64.67
2022-11-27T08:51:09.017Z,69.47
2022-11-27T08:53:37.830Z,56.50
2022-11-27T08:56:10.844Z,68.23
2022-11-27T08:58:40.982Z,67.87
2022-11-27T09:01:10.693Z,57.27
2022-11-27T09:03:39.005Z,56.27
2022-11-27T09:06:14.259Z,65.70
2022-11-27T09:08:43.148Z,56.50
2022-11-27T09:11:12.936Z,67.37
2022-11-27T09:13:41.255Z,56.90
2022-11-27T09:16:12.443Z,59.23
2022-11-27T09:18:40.608Z,57.90
2022-11-27T09:21:12.884Z,68.20
2022-11-27T09:23:41.379Z,55.67
2022-11-27T09:26:11.400Z,52.70
2022-11-27T09:28:40.761Z,58.00
2022-11-27T09:31:10.527Z,65.00
2022-11-27T09:33:40.095Z,59.53
2022-11-27T09:36:09.755Z,57.53
2022-11-27T09:38:39.566Z,52.97
2022-11-27T09:41:35.637Z,41.03
2022-11-27T09:44:07.423Z,52.10
2022-11-27T09:46:39.663Z,54.60
2022-11-27T09:49:10.833Z,46.80
2022-11-27T09:51:42.704Z,53.87
2022-11-27T09:54:19.671Z,49.87
2022-11-27T09:56:50.599Z,52.67
2022-11-27T09:59:20.719Z,130.13
2022-11-27T10:01:51.063Z,89.37
2022-11-27T10:04:22.163Z,43.90
2022-11-27T10:07:09.544Z,55.77
2022-11-27T10:09:47.400Z,42.67
2022-11-27T10:12:23.934Z,52.80
2022-11-27T10:15:03.556Z,50.50
2022-11-27T10:17:37.614Z,41.57
2022-11-27T10:20:23.501Z,40.73
2022-11-27T10:23:00.127Z,46.07
2022-11-27T10:25:33.622Z,42.33
2022-11-27T10:28:10.858Z,50.67
2022-11-27T10:30:43.490Z,46.17
2022-11-27T10:33:18.579Z,40.13
2022-11-27T10:35:49.034Z,45.70
2022-11-27T10:38:20.499Z,46.23
2022-11-27T10:40:56.814Z,44.67
2022-11-27T10:43:26.474Z,58.07
2022-11-27T10:45:57.456Z,62.43
2022-11-27T10:48:25.694Z,47.47
2022-11-27T10:50:53.646Z,50.00
2022-11-27T10:53:28.080Z,52.97
2022-11-27T10:56:28.469Z,53.53
2022-11-27T10:58:59.213Z,45.27
2022-11-27T11:01:29.605Z,45.73
2022-11-27T11:04:24.207Z,41.97
2022-11-27T11:06:55.148Z,55.70
2022-11-27T11:09:25.329Z,46.03
2022-11-27T11:11:54.667Z,44.70
2022-11-27T11:14:24.500Z,49.57
2022-11-27T11:16:53.814Z,46.93
2022-11-27T11:19:26.757Z,45.50
2022-11-27T11:21:55.073Z,46.67
2022-11-27T11:24:29.677Z,39.73
2022-11-27T11:27:02.137Z,42.07
2022-11-27T11:29:35.849Z,42.73
2022-11-27T11:32:11.538Z,36.47
2022-11-27T11:34:44.017Z,43.50
2022-11-27T11:37:23.564Z,42.70
2022-11-27T11:39:56.890Z,72.90
2022-11-27T11:42:28.189Z,41.17
2022-11-27T11:45:02.002Z,255.60
2022-11-27T11:47:30.164Z,52.07
2022-11-27T11:49:58.713Z,45.57
2022-11-27T11:52:42.633Z,82.53
2022-11-27T11:55:19.021Z,62.47
2022-11-27T11:58:27.010Z,63.77
2022-11-27T12:04:06.609Z,42.97
2022-11-27T12:06:46.801Z,48.87
2022-11-27T12:09:28.423Z,40.60
2022-11-27T12:12:02.501Z,66.13
2022-11-27T12:14:44.436Z,115.30
2022-11-27T12:17:27.717Z,78.33
2022-11-27T12:20:14.344Z,56.90
2022-11-27T12:23:20.899Z,45.57
2022-11-27T12:25:57.928Z,39.87
2022-11-27T12:28:46.097Z,42.13
2022-11-27T12:31:28.279Z,45.27
2022-11-27T12:34:01.937Z,46.97
2022-11-27T12:36:51.584Z,39.47
2022-11-27T12:39:25.718Z,37.40
2022-11-27T12:42:06.897Z,34.63
2022-11-27T12:44:45.033Z,38.73
2022-11-27T12:47:19.770Z,42.13
2022-11-27T12:49:51.420Z,36.97
2022-11-27T12:52:22.416Z,40.90
2022-11-27T12:54:55.717Z,37.23
2022-11-27T12:57:31.076Z,43.40
2022-11-27T13:00:02.308Z,38.50
2022-11-27T13:02:37.231Z,41.73
2022-11-27T13:05:08.512Z,36.67
2022-11-27T13:07:45.171Z,40.27
2022-11-27T13:10:20.461Z,37.60
2022-11-27T13:12:54.771Z,36.90
2022-11-27T13:15:28.939Z,37.47
2022-11-27T13:18:04.436Z,40.93
2022-11-27T13:20:37.327Z,48.77
2022-11-27T13:23:05.267Z,35.80
2022-11-27T13:25:37.115Z,35.77
2022-11-27T13:28:06.552Z,40.63
2022-11-27T13:30:38.054Z,45.43
2022-11-27T13:33:08.118Z,56.73
2022-11-27T13:35:41.854Z,58.93
2022-11-27T13:38:12.341Z,56.77
2022-11-27T13:40:43.184Z,47.50
2022-11-27T13:43:23.802Z,48.17
2022-11-27T13:45:52.788Z,45.87
2022-11-27T13:48:31.180Z,52.00
2022-11-27T13:51:00.307Z,68.73
2022-11-27T13:53:36.400Z,142.83
2022-11-27T13:56:04.944Z,62.00
2022-11-27T13:58:35.456Z,44.87
2022-11-27T14:01:15.475Z,50.37
2022-11-27T14:03:44.815Z,51.53
2022-11-27T14:06:26.154Z,48.33
2022-11-27T14:09:01.857Z,45.90
2022-11-27T14:11:33.520Z,50.63
2022-11-27T14:14:02.822Z,55.53
2022-11-27T14:16:32.762Z,59.03
2022-11-27T14:19:03.896Z,54.20
2022-11-27T14:21:40.895Z,51.73
2022-11-27T14:24:36.376Z,51.87
2022-11-27T14:27:15.972Z,57.20
2022-11-27T14:29:43.944Z,47.60
2022-11-27T14:32:14.494Z,54.90
2022-11-27T14:34:44.284Z,57.20
2022-11-27T14:37:25.592Z,60.83
2022-11-27T14:39:54.011Z,56.10
2022-11-27T14:42:28.263Z,66.27
2022-11-27T14:45:05.128Z,55.00
2022-11-27T14:47:34.439Z,59.00
2022-11-27T14:50:04.545Z,59.23
2022-11-27T14:52:32.863Z,55.23
2022-11-27T14:55:02.126Z,59.90
2022-11-27T14:57:31.447Z,59.97
2022-11-27T15:00:05.946Z,58.80
2022-11-27T15:02:34.119Z,55.73
2022-11-27T15:05:07.615Z,58.13
2022-11-27T15:07:45.445Z,54.40
2022-11-27T15:10:30.034Z,96.57
2022-11-27T15:12:59.148Z,125.57
2022-11-27T15:15:28.543Z,107.33
2022-11-27T15:17:59.183Z,95.37
2022-11-27T15:20:35.215Z,137.43
2022-11-27T15:23:03.915Z,80.10
2022-11-27T15:25:37.766Z,57.93
2022-11-27T15:28:35.836Z,60.23
2022-11-27T15:31:22.387Z,52.37
2022-11-27T15:33:56.747Z,64.30
2022-11-27T15:36:26.354Z,51.70
2022-11-27T15:39:05.967Z,61.63
2022-11-27T15:41:33.926Z,73.73
2022-11-27T15:44:03.203Z,81.10
2022-11-27T15:46:35.658Z,57.27
2022-11-27T15:49:03.590Z,71.63
2022-11-27T15:51:32.807Z,67.83
2022-11-27T15:54:00.803Z,135.27
2022-11-27T15:56:28.782Z,122.27
2022-11-27T15:58:56.691Z,61.03
2022-11-27T16:01:24.873Z,47.47
2022-11-27T16:03:52.779Z,64.77
2022-11-27T16:06:23.402Z,52.20
2022-11-27T16:08:56.111Z,69.20
2022-11-27T16:11:25.062Z,60.43
2022-11-27T16:13:52.954Z,65.70
2022-11-27T16:16:21.340Z,59.47
2022-11-27T16:18:49.224Z,192.27
2022-11-27T16:21:18.740Z,125.87
2022-11-27T16:23:46.674Z,60.87
2022-11-27T16:26:15.977Z,89.63
2022-11-27T16:28:43.914Z,76.67
2022-11-27T16:31:15.061Z,69.07
2022-11-27T16:33:43.077Z,74.70
2022-11-27T16:36:13.438Z,66.63
2022-11-27T16:38:41.789Z,59.57
2022-11-27T16:41:17.109Z,54.20
2022-11-27T16:43:46.793Z,49.33
2022-11-27T16:46:16.668Z,51.73
2022-11-27T16:48:45.603Z,88.73
2022-11-27T16:51:15.665Z,77.23
2022-11-27T16:53:46.109Z,57.40
2022-11-27T16:56:17.399Z,59.63
2022-11-27T16:58:46.726Z,55.87
2022-11-27T17:01:16.977Z,70.13
2022-11-27T17:03:45.245Z,76.83
2022-11-27T17:06:14.928Z,75.63
2022-11-27T17:08:43.519Z,82.13
2022-11-27T17:11:12.887Z,68.17
2022-11-27T17:13:42.474Z,77.03
2022-11-27T17:16:10.985Z,58.57
2022-11-27T17:18:39.797Z,61.47
2022-11-27T17:21:10.168Z,54.87
2022-11-27T17:23:38.428Z,55.33
2022-11-27T17:26:09.952Z,69.93
2022-11-27T17:28:38.089Z,72.87
2022-11-27T17:31:12.582Z,91.90
2022-11-27T17:33:40.528Z,72.73
2022-11-27T17:36:08.860Z,81.00
2022-11-27T17:38:36.948Z,74.87
2022-11-27T17:41:06.912Z,70.03
2022-11-27T17:43:34.900Z,65.43
2022-11-27T17:46:03.624Z,65.40
2022-11-27T17:48:34.381Z,64.30
2022-11-27T17:51:02.449Z,55.97
2022-11-27T17:53:30.376Z,58.77
2022-11-27T17:56:04.216Z,53.40
2022-11-27T17:58:32.344Z,60.70
2022-11-27T18:01:01.033Z,55.50
2022-11-27T18:03:29.809Z,53.53
2022-11-27T18:06:03.791Z,54.67
2022-11-27T18:08:31.830Z,54.93
2022-11-27T18:11:06.336Z,60.70
2022-11-27T18:13:34.327Z,56.10
2022-11-27T18:16:06.983Z,52.60
2022-11-27T18:18:34.990Z,51.30
2022-11-27T18:21:08.721Z,51.17
2022-11-27T18:23:49.624Z,62.17
2022-11-27T18:26:45.463Z,54.27
2022-11-27T18:29:14.379Z,49.77
2022-11-27T18:31:42.563Z,51.33
2022-11-27T18:34:10.495Z,52.37
2022-11-27T18:36:39.819Z,51.50
2022-11-27T18:39:07.729Z,44.97
2022-11-27T18:41:36.582Z,42.97
2022-11-27T18:44:05.105Z,42.93
2022-11-27T18:46:33.651Z,47.67
2022-11-27T18:49:01.691Z,40.53
2022-11-27T18:51:29.638Z,42.87
2022-11-27T18:53:59.390Z,44.73
2022-11-27T18:56:29.452Z,42.90
2022-11-27T18:58:57.707Z,40.80
2022-11-27T19:01:28.570Z,43.73
2022-11-27T19:03:57.662Z,94.80
2022-11-27T19:06:25.741Z,61.37
2022-11-27T19:08:53.792Z,62.73
2022-11-27T19:11:24.494Z,255.17
2022-11-27T19:13:54.687Z,140.03
2022-11-27T19:16:24.861Z,82.17
2022-11-27T19:18:53.430Z,71.63
2022-11-27T19:21:23.957Z,85.10
2022-11-27T19:23:53.042Z,76.37
2022-11-27T19:26:24.422Z,70.70
2022-11-27T19:28:53.274Z,62.43
2022-11-27T19:31:22.751Z,163.77
2022-11-27T19:33:52.763Z,750.43
2022-11-27T19:36:22.763Z,144.27
2022-11-27T19:38:55.406Z,164.77
2022-11-27T19:41:24.826Z,173.57
2022-11-27T19:43:53.615Z,128.87
2022-11-27T19:46:24.839Z,132.47
2022-11-27T19:48:56.034Z,106.10
2022-11-27T19:51:24.825Z,89.13
2022-11-27T19:53:52.974Z,126.70
2022-11-27T19:56:21.118Z,104.77
2022-11-27T19:58:50.613Z,216.33
2022-11-27T20:01:20.557Z,92.40
2022-11-27T20:03:48.621Z,68.30
2022-11-27T20:06:18.641Z,61.40
2022-11-27T20:08:47.923Z,95.27
2022-11-27T20:11:18.250Z,82.27
2022-11-27T20:13:46.520Z,86.43
2022-11-27T20:16:18.249Z,104.80
2022-11-27T20:18:46.382Z,97.97
2022-11-27T20:21:17.159Z,74.83
2022-11-27T20:23:45.951Z,88.13
2022-11-27T20:26:16.567Z,85.40
2022-11-27T20:28:45.027Z,141.87
2022-11-27T20:31:18.228Z,148.33
2022-11-27T20:33:46.238Z,361.47
2022-11-27T20:36:15.486Z,156.03
2022-11-27T20:38:43.729Z,142.17
2022-11-27T20:41:13.715Z,143.30
2022-11-27T20:43:43.033Z,173.03
2022-11-27T20:46:13.375Z,112.63
2022-11-27T20:48:43.051Z,187.73
2022-11-27T20:51:14.318Z,101.07
2022-11-27T20:53:43.321Z,116.63
2022-11-27T20:56:12.983Z,127.07
2022-11-27T20:58:42.849Z,163.00
2022-11-27T21:01:16.067Z,142.17
2022-11-27T21:03:46.176Z,236.47
2022-11-27T21:06:14.186Z,409.90
2022-11-27T21:08:42.177Z,273.90
2022-11-27T21:11:12.169Z,193.67
2022-11-27T21:13:40.062Z,133.70
2022-11-27T21:16:09.539Z,78.43
2022-11-27T21:18:37.908Z,79.63
2022-11-27T21:21:08.881Z,89.57
2022-11-27T21:23:37.518Z,86.30
2022-11-27T21:26:06.025Z,88.03
2022-11-27T21:28:34.716Z,81.53
2022-11-27T21:31:07.678Z,120.37
2022-11-27T21:33:35.900Z,107.83
2022-11-27T21:36:04.145Z,78.97
2022-11-27T21:38:33.521Z,338.97
2022-11-27T21:41:01.419Z,177.70
2022-11-27T21:43:31.578Z,147.13
2022-11-27T21:45:59.545Z,212.13
2022-11-27T21:48:27.442Z,166.57
2022-11-27T21:51:01.692Z,182.93
2022-11-27T21:53:30.228Z,296.47
2022-11-27T21:55:59.551Z,210.60
2022-11-27T21:58:28.576Z,251.23
2022-11-27T22:00:56.540Z,140.73
2022-11-27T22:03:24.479Z,438.87
2022-11-27T22:05:59.108Z,582.40
2022-11-27T22:11:15.232Z,142.07
2022-11-27T22:13:43.533Z,181.00
2022-11-27T22:16:13.178Z,149.83
2022-11-27T22:18:41.194Z,162.77
2022-11-27T22:21:10.188Z,119.73
2022-11-27T22:23:38.571Z,120.77
2022-11-27T22:26:08.424Z,377.70
2022-11-27T22:28:38.600Z,153.40
2022-11-27T22:31:10.197Z,208.23
2022-11-27T22:33:38.897Z,280.73
2022-11-27T22:36:15.282Z,123.47
2022-11-27T22:38:43.517Z,162.47
2022-11-27T22:41:12.146Z,94.60
2022-11-27T22:43:41.431Z,103.57
2022-11-27T22:46:11.292Z,99.67
2022-11-27T22:48:39.447Z,87.97
2022-11-27T22:51:07.945Z,89.77
2022-11-27T22:53:35.979Z,90.77
2022-11-27T22:56:08.606Z,99.67
2022-11-27T22:58:41.180Z,94.23
2022-11-27T23:01:15.530Z,91.67
2022-11-27T23:03:43.643Z,68.30
2022-11-27T23:06:12.859Z,80.70
2022-11-27T23:08:41.716Z,72.40
2022-11-27T23:11:10.499Z,65.03
2022-11-27T23:13:38.547Z,73.93
2022-11-27T23:16:08.504Z,75.90
2022-11-27T23:18:39.247Z,63.90
2022-11-27T23:21:07.829Z,63.93
2022-11-27T23:23:35.834Z,62.20
2022-11-27T23:26:04.912Z,67.77
2022-11-27T23:28:32.857Z,74.47
2022-11-27T23:31:28.094Z,64.30
2022-11-27T23:33:55.523Z,62.73
2022-11-27T23:36:24.187Z,62.27
2022-11-27T23:38:52.397Z,69.90
2022-11-27T23:41:22.484Z,65.50
2022-11-27T23:43:51.039Z,65.13
2022-11-27T23:46:20.860Z,77.17
2022-11-27T23:48:49.086Z,62.20
2022-11-27T23:51:20.790Z,62.67
2022-11-27T23:53:50.333Z,73.83
2022-11-27T23:56:20.762Z,77.47
2022-11-27T23:58:49.091Z,110.10
